METAR ET TAF INFORMATION
METAR FOR LFRS
ADDS - METARS form results

(2026 UTC 10 August 2022)
Data provider http://aviationweather.gov/metar/data/
 
METAR text: LFRS 102000Z AUTO 05005KT 010V070 CAVOK 30/08 Q1017 NOSIG
Conditions at: LFRS (NANTES/CHATEAU B, FR) observed 2000 UTC 10 August 2022
Temperature: 30.0°C (86°F)
Dewpoint: 8.0°C (46°F) [RH = 25%]
Pressure (altimeter): 30.03 inches Hg (1017.0 mb)
Winds: from the NE (50 degrees) at 6 MPH (5 knots; 2.6 m/s)
Visibility: 6 or more miles (10+ km)
Ceiling: ceiling and visibility are OK
Clouds: unknown
Weather: no significant weather observed at this time

METAR text: LFRS 101930Z AUTO 05006KT CAVOK 31/08 Q1016 NOSIG
Conditions at: LFRS (NANTES/CHATEAU B, FR) observed 1930 UTC 10 August 2022
Temperature: 31.0°C (88°F)
Dewpoint: 8.0°C (46°F) [RH = 24%]
Pressure (altimeter): 30.00 inches Hg (1016.0 mb)
Winds: from the NE (50 degrees) at 7 MPH (6 knots; 3.1 m/s)
Visibility: 6 or more miles (10+ km)
Ceiling: ceiling and visibility are OK
Clouds: unknown
Weather: no significant weather observed at this time

Forecast for: LFRS (NANTES/CHATEAU B, FR)
Text: TAF LFRS 101700Z 1018/1124 06010KT CAVOK
Forecast period: 1800 UTC 10 August 2022 to 0000 UTC 12 August 2022
Forecast type: FROM: standard forecast or significant change
Winds: from the ENE (60 degrees) at 12 MPH (10 knots; 5.1 m/s)
Visibility: 6 or more miles (10+ km)
Ceiling: unknown
Clouds: missing
Weather: NSW  (no significant weather)

 AÉROPORT DE AÉROPORT

 INFORMATIONS DE PISTE
Piste 03 Longueur de la piste 9514 ft Largeur de la piste 148 ft
Élévation de la piste 73 ft Seuil de la piste déplacés 0 ft Runway heading 28
Piste 21 Longueur de la piste 9514 ft Largeur de la piste 148 ft
Élévation de la piste 86 ft Seuil de la piste déplacés 694 ft Runway heading 208

 AÉROPORT FRÉQUENCES
Type APP Nom APP Féquence 130.275 MHZ
Type ATIS Nom ATIS Féquence 126.925 MHZ
Type GND Nom GND Féquence 121.875 MHZ
Type INFO Nom INFO Féquence 129.875 MHZ
Type TWR Nom TWR Féquence 118.65 MHZ

 SIDA DE NAVIGATION
Type NDB Nom Nantes Féquence 369 KHZ
Type VOR-DME Nom Nantes Féquence 115500 KHZ



Powered by Virtual Airlines Manager [v2.6.2]